createdAt,value
2017-05-13T00:00:13.467Z,83.51
2017-05-13T00:00:54.077Z,83.8
2017-05-13T00:01:34.758Z,84.47
2017-05-13T00:02:15.420Z,84.09
2017-05-13T00:02:56.102Z,83.7
2017-05-13T00:03:36.687Z,83.51
2017-05-13T00:04:17.277Z,84.19
2017-05-13T00:04:57.991Z,83.51
2017-05-13T00:05:38.633Z,84.19
2017-05-13T00:06:19.287Z,84.19
2017-05-13T00:06:59.922Z,83.7
2017-05-13T00:07:40.586Z,84.09
2017-05-13T00:08:21.159Z,83.7
2017-05-13T00:09:01.840Z,84.28
2017-05-13T00:09:42.486Z,84.28
2017-05-13T00:10:23.171Z,83.99
2017-05-13T00:11:03.687Z,84.28
2017-05-13T00:11:44.401Z,84.28
2017-05-13T00:12:24.970Z,84.28
2017-05-13T00:13:05.541Z,84.38
2017-05-13T00:13:46.151Z,83.99
2017-05-13T00:14:26.726Z,84.28
2017-05-13T00:15:07.373Z,84.09
2017-05-13T00:15:47.966Z,84.28
2017-05-13T00:16:28.701Z,84.19
2017-05-13T00:17:10.387Z,84.19
2017-05-13T00:17:51.078Z,84.28
2017-05-13T00:18:31.830Z,84.09
2017-05-13T00:19:13.621Z,84.38
2017-05-13T00:19:56.447Z,84.28
2017-05-13T00:20:37.178Z,84.28
2017-05-13T00:21:17.902Z,84.28
2017-05-13T00:21:59.550Z,84.19
2017-05-13T00:22:41.255Z,84.28
2017-05-13T00:23:22.037Z,84.28
2017-05-13T00:24:02.786Z,84.19
2017-05-13T00:24:43.514Z,84.28
2017-05-13T00:25:24.312Z,84.28
2017-05-13T00:26:06.039Z,84.28
2017-05-13T00:26:46.699Z,84.09
2017-05-13T00:27:27.446Z,84.38
2017-05-13T00:28:08.115Z,84.28
2017-05-13T00:28:48.871Z,83.99
2017-05-13T00:29:30.653Z,84.28
2017-05-13T00:30:11.421Z,84.38
2017-05-13T00:30:52.164Z,84.19
2017-05-13T00:31:32.914Z,84.28
2017-05-13T00:32:13.572Z,84.19
2017-05-13T00:32:54.349Z,83.99
2017-05-13T00:33:35.077Z,84.38
2017-05-13T00:34:15.759Z,84.09
2017-05-13T00:34:56.525Z,84.09
2017-05-13T00:35:37.254Z,84.38
2017-05-13T00:36:17.970Z,84.19
2017-05-13T00:37:00.829Z,84.28
2017-05-13T00:37:41.569Z,84.09
2017-05-13T00:38:22.328Z,84.19
2017-05-13T00:39:02.975Z,84.28
2017-05-13T00:39:43.835Z,83.99
2017-05-13T00:40:25.492Z,83.99
2017-05-13T00:41:06.161Z,83.99
2017-05-13T00:41:46.929Z,83.99
2017-05-13T00:42:27.685Z,83.99
2017-05-13T00:43:08.426Z,83.99
2017-05-13T00:43:49.188Z,83.99
2017-05-13T00:44:29.945Z,83.99
2017-05-13T00:45:10.668Z,84.09
2017-05-13T00:45:51.354Z,84.09
2017-05-13T00:46:32.073Z,84.09
2017-05-13T00:47:12.665Z,83.9
2017-05-13T00:47:53.390Z,84.19
2017-05-13T00:48:34.072Z,83.99
2017-05-13T00:49:14.820Z,83.99
2017-05-13T00:49:55.425Z,84.38
2017-05-13T00:50:36.119Z,83.99
2017-05-13T00:51:16.906Z,84.38
2017-05-13T00:51:57.617Z,84.19
2017-05-13T00:52:38.233Z,84.28
2017-05-13T00:53:19.983Z,84.28
2017-05-13T00:54:00.817Z,84.19
2017-05-13T00:54:41.559Z,84.19
2017-05-13T00:55:22.177Z,83.99
2017-05-13T00:56:02.891Z,84.09
2017-05-13T00:56:43.707Z,83.9
2017-05-13T00:57:24.488Z,84.09
2017-05-13T00:58:05.103Z,84.95
2017-05-13T00:58:45.789Z,84.95
2017-05-13T00:59:26.524Z,85.14
2017-05-13T01:00:07.295Z,84.66
2017-05-13T01:00:47.911Z,84.76
2017-05-13T01:01:28.618Z,84.85
2017-05-13T01:02:09.390Z,84.76
2017-05-13T01:02:50.134Z,84.76
2017-05-13T01:03:30.906Z,84.85
2017-05-13T01:04:11.643Z,84.76
2017-05-13T01:04:52.430Z,84.56
2017-05-13T01:05:33.079Z,84.76
2017-05-13T01:06:13.771Z,84.85
2017-05-13T01:06:54.361Z,84.47
2017-05-13T01:07:35.123Z,84.76
2017-05-13T01:08:15.810Z,84.76
2017-05-13T01:08:56.488Z,84.76
2017-05-13T01:09:37.078Z,84.66
2017-05-13T01:10:17.874Z,84.66
2017-05-13T02:40:10.262Z,86.16
2017-05-13T02:40:50.942Z,86.16
2017-05-13T02:41:31.519Z,86.25
2017-05-13T02:42:12.186Z,85.97
2017-05-13T02:42:52.743Z,86.16
2017-05-13T02:43:33.485Z,86.06
2017-05-13T02:44:14.047Z,86.25
2017-05-13T02:44:54.744Z,86.25
2017-05-13T02:45:35.439Z,85.97
2017-05-13T02:46:16.011Z,85.97
2017-05-13T02:46:56.756Z,86.16
2017-05-13T02:47:37.500Z,86.06
2017-05-13T02:48:33.245Z,86.16
2017-05-13T02:49:16.049Z,85.97
2017-05-13T02:50:09.718Z,85.97
2017-05-13T02:50:51.459Z,85.97
2017-05-13T02:51:33.280Z,86.73
2017-05-13T02:52:19.723Z,86.16
2017-05-13T02:53:12.272Z,85.97
2017-05-13T02:53:55.115Z,86.25
2017-05-13T02:54:35.822Z,86.63
2017-05-13T02:55:18.672Z,86.16
2017-05-13T02:55:59.391Z,85.97
2017-05-13T02:56:40.143Z,86.16
2017-05-13T02:57:33.708Z,86.16
2017-05-13T02:58:19.317Z,86.16
2017-05-13T02:59:01.077Z,85.97
2017-05-13T02:59:41.918Z,86.63
2017-05-13T03:00:22.679Z,86.16
2017-05-13T03:01:04.467Z,86.16
2017-05-13T04:33:55.859Z,85.05
2017-05-13T04:34:36.545Z,84.66
2017-05-13T04:35:17.106Z,84.76
2017-05-13T04:35:57.823Z,84.95
2017-05-13T04:36:38.475Z,84.76
2017-05-13T04:37:19.159Z,84.76
2017-05-13T04:37:59.730Z,84.76
2017-05-13T04:38:40.363Z,84.95
2017-05-13T04:39:21.128Z,85.05
2017-05-13T04:40:01.699Z,85.14
2017-05-13T04:40:42.490Z,84.66
2017-05-13T04:41:23.043Z,84.56
2017-05-13T04:42:03.781Z,84.76
2017-05-13T04:42:44.348Z,84.8
2017-05-13T04:43:25.018Z,84.8
2017-05-13T04:44:05.614Z,84.76
2017-05-13T04:44:46.207Z,84.7
2017-05-13T04:45:26.959Z,84.23
2017-05-13T04:46:07.729Z,84.32
2017-05-13T04:46:48.324Z,84.23
2017-05-13T04:47:29.026Z,84.32
2017-05-13T04:48:09.781Z,84.03
2017-05-13T04:48:50.341Z,84.13
2017-05-13T04:49:31.110Z,84.13
2017-05-13T04:50:11.861Z,83.56
2017-05-13T04:50:52.727Z,83.65
2017-05-13T04:51:33.489Z,83.75
2017-05-13T04:52:14.185Z,83.94
2017-05-13T04:52:54.951Z,83.84
2017-05-13T04:53:35.724Z,83.84
2017-05-13T04:54:16.448Z,83.56
2017-05-13T04:54:57.135Z,83.75
2017-05-13T04:55:37.925Z,83.37
2017-05-13T04:56:18.475Z,83.56
2017-05-13T04:56:59.189Z,83.5
2017-05-13T04:57:39.734Z,83.89
2017-05-13T04:58:20.504Z,83.69
2017-05-13T04:59:01.099Z,83.98
2017-05-13T04:59:41.713Z,83.31
2017-05-13T05:00:22.520Z,83.4
2017-05-13T05:01:03.354Z,83.4
2017-05-13T05:01:44.108Z,83.22
2017-05-13T05:02:24.704Z,83.12
2017-05-13T05:03:05.420Z,83.12
2017-05-13T05:03:46.028Z,83.31
2017-05-13T05:04:26.747Z,83.22
2017-05-13T05:05:07.518Z,83.4
2017-05-13T05:05:48.309Z,83.03
2017-05-13T05:06:29.145Z,83.6
2017-05-13T05:07:09.852Z,83.31
2017-05-13T05:07:50.799Z,83.22
2017-05-13T05:08:31.542Z,83.4
2017-05-13T05:09:12.314Z,82.74
2017-05-13T05:09:52.947Z,82.93
2017-05-13T05:10:33.725Z,83.03
2017-05-13T05:11:14.847Z,83.03
2017-05-13T05:11:55.603Z,83.03
2017-05-13T05:12:36.214Z,82.93
2017-05-13T05:13:16.934Z,83.12
2017-05-13T05:13:57.519Z,82.83
2017-05-13T05:14:38.501Z,82.93
2017-05-13T05:15:19.226Z,82.93
2017-05-13T05:16:00.051Z,82.83
2017-05-13T05:16:40.828Z,83.12
2017-05-13T05:17:21.438Z,82.74
2017-05-13T05:18:02.152Z,82.74
2017-05-13T05:18:42.989Z,82.45
2017-05-13T05:19:23.820Z,82.74
2017-05-13T05:20:04.523Z,82.64
2017-05-13T05:20:45.318Z,82.83
2017-05-13T05:21:26.095Z,82.93
2017-05-13T05:22:06.987Z,82.93
2017-05-13T05:22:47.772Z,82.83
2017-05-13T05:23:28.574Z,83.03
2017-05-13T05:24:09.331Z,82.74
2017-05-13T05:24:49.971Z,83.22
2017-05-13T05:25:30.762Z,82.64
2017-05-13T05:26:11.558Z,82.68
2017-05-13T05:26:52.345Z,82.2
2017-05-13T05:27:32.960Z,82.59
2017-05-13T05:28:13.755Z,82.45
2017-05-13T05:28:54.347Z,82.54
2017-05-13T05:29:34.957Z,82.64
2017-05-13T05:30:15.676Z,82.54
2017-05-13T05:30:56.240Z,82.87
2017-05-13T05:31:37.038Z,82.54
2017-05-13T05:32:17.677Z,82.59
2017-05-13T05:32:58.429Z,82.54
2017-05-13T05:33:39.024Z,82.54
2017-05-13T05:34:19.766Z,82.45
2017-05-13T05:35:00.406Z,82.45
2017-05-13T05:35:41.055Z,82.45
2017-05-13T05:36:21.828Z,82.35
2017-05-13T05:37:02.449Z,82.45
2017-05-13T05:37:43.160Z,82.45
2017-05-13T05:38:23.741Z,82.45
2017-05-13T05:39:04.411Z,82.54
2017-05-13T05:39:45.000Z,82.64
2017-05-13T05:40:25.708Z,82.64
2017-05-13T05:41:06.425Z,82.45
2017-05-13T05:41:47.077Z,82.54
2017-05-13T05:42:27.683Z,82.54
2017-05-13T05:43:08.378Z,82.83
2017-05-13T05:43:48.939Z,82.83
2017-05-13T05:44:29.559Z,82.45
2017-05-13T05:45:10.263Z,82.26
2017-05-13T05:45:50.858Z,82.07
2017-05-13T05:46:31.563Z,82.45
2017-05-13T05:47:12.151Z,82.07
2017-05-13T05:47:52.789Z,82.2
2017-05-13T05:48:33.340Z,82.01
2017-05-13T05:49:14.453Z,82.01
2017-05-13T05:49:55.166Z,82.11
2017-05-13T05:50:35.756Z,82.11
2017-05-13T05:51:16.427Z,82.11
2017-05-13T05:51:57.103Z,82.11
2017-05-13T05:52:38.807Z,81.63
2017-05-13T05:53:19.643Z,81.63
2017-05-13T05:54:00.353Z,81.34
2017-05-13T05:54:43.197Z,81.29
2017-05-13T05:55:23.992Z,81.29
2017-05-13T05:56:04.729Z,81.2
2017-05-13T05:56:47.615Z,81.48
2017-05-13T05:57:28.222Z,80.9
2017-05-13T05:58:08.974Z,81.23
2017-05-13T05:58:49.734Z,80.76
2017-05-13T05:59:30.519Z,80.66
2017-05-13T06:00:13.353Z,80.56
2017-05-13T06:00:53.989Z,80.56
2017-05-13T06:01:35.788Z,79.99
2017-05-13T06:02:16.465Z,79.99
2017-05-13T06:03:01.832Z,80.12
2017-05-13T06:03:42.528Z,79.83
2017-05-13T06:04:23.260Z,79.83
2017-05-13T06:05:08.911Z,79.45
2017-05-13T06:06:01.555Z,79.55
2017-05-13T06:06:42.116Z,79.93
2017-05-13T06:31:31.158Z,78.44
2017-05-13T06:32:11.721Z,78.34
2017-05-13T06:32:52.519Z,78.44
2017-05-13T06:33:33.244Z,78.53
2017-05-13T06:34:13.909Z,78.82
2017-05-13T06:34:55.756Z,78.05
2017-05-13T06:35:36.534Z,78.05
2017-05-13T06:36:17.314Z,78.15
2017-05-13T06:36:58.026Z,77.58
2017-05-13T06:37:39.965Z,77.67
2017-05-13T06:38:20.811Z,77.86
2017-05-13T06:39:02.640Z,77.86
2017-05-13T06:39:43.430Z,77.67
2017-05-13T06:40:25.280Z,77.29
2017-05-13T06:41:06.088Z,77.42
2017-05-13T06:41:46.884Z,77.61
2017-05-13T06:42:27.746Z,76.94
2017-05-13T06:43:08.597Z,77.04
2017-05-13T06:43:49.311Z,77.04
2017-05-13T06:44:30.300Z,77.23
2017-05-13T06:45:10.982Z,77.23
2017-05-13T06:45:53.789Z,77.04
2017-05-13T06:46:34.739Z,76.75
2017-05-13T06:47:15.547Z,77.13
2017-05-13T06:47:56.215Z,76.75
2017-05-13T06:48:38.027Z,77.23
2017-05-13T06:49:18.892Z,77.23
2017-05-13T06:50:01.698Z,77.23
2017-05-13T06:50:42.414Z,77.23
2017-05-13T06:51:23.220Z,77.23
2017-05-13T06:52:05.126Z,77.13
2017-05-13T06:52:45.975Z,77.23
2017-05-13T06:53:26.730Z,77.23
2017-05-13T06:54:07.538Z,77.23
2017-05-13T06:54:48.357Z,76.94
2017-05-13T06:55:29.146Z,77.42
2017-05-13T06:56:09.832Z,76.84
2017-05-13T06:56:50.656Z,77.04
2017-05-13T06:57:31.258Z,77.04
2017-05-13T06:58:22.710Z,76.94
2017-05-13T06:59:04.183Z,76.75
2017-05-13T06:59:44.784Z,77.04
2017-05-13T07:00:25.544Z,76.75
2017-05-13T07:01:06.271Z,76.65
2017-05-13T07:01:49.107Z,77.04
2017-05-13T07:02:29.906Z,76.56
2017-05-13T07:03:12.672Z,76.75
2017-05-13T07:03:53.511Z,76.56
2017-05-13T07:04:36.286Z,76.84
2017-05-13T07:05:17.099Z,77.13
2017-05-13T07:05:58.963Z,76.94
2017-05-13T07:06:39.756Z,76.94
2017-05-13T07:07:21.515Z,76.94
2017-05-13T07:08:13.246Z,76.56
2017-05-13T07:08:54.981Z,77.04
2017-05-13T07:09:35.774Z,77.04
2017-05-13T07:10:18.523Z,77.04
2017-05-13T07:10:59.329Z,76.75
2017-05-13T07:11:40.152Z,77.04
2017-05-13T07:12:20.990Z,76.84
2017-05-13T07:13:01.848Z,76.65
2017-05-13T07:13:42.631Z,76.84
2017-05-13T07:14:23.389Z,76.84
2017-05-13T07:15:04.154Z,77.04
2017-05-13T07:15:44.869Z,77.04
2017-05-13T07:16:25.654Z,76.75
2017-05-13T07:17:07.534Z,76.75
2017-05-13T07:17:48.259Z,76.27
2017-05-13T07:18:29.987Z,76.65
2017-05-13T07:19:10.793Z,76.75
2017-05-13T07:19:51.566Z,76.65
2017-05-13T07:20:32.242Z,76.75
2017-05-13T07:35:20.659Z,76.37
2017-05-13T07:36:01.336Z,76.27
2017-05-13T07:36:41.913Z,75.98
2017-05-13T07:37:22.653Z,76.17
2017-05-13T07:38:03.237Z,76.27
2017-05-13T07:38:43.804Z,76.37
2017-05-13T07:39:24.537Z,76.27
2017-05-13T07:40:05.152Z,75.98
2017-05-13T07:40:45.842Z,75.98
2017-05-13T07:41:26.528Z,76.12
2017-05-13T07:42:07.300Z,75.73
2017-05-13T07:42:47.962Z,75.54
2017-05-13T07:43:28.702Z,75.73
2017-05-13T07:44:09.460Z,75.25
2017-05-13T07:44:50.251Z,75.25
2017-05-13T07:45:30.972Z,75.1
2017-05-13T07:46:11.557Z,74.81
2017-05-13T07:46:52.341Z,74.81
2017-05-13T07:47:33.263Z,74.62
2017-05-13T07:48:19.582Z,74.33
2017-05-13T07:49:00.306Z,74.33
2017-05-13T07:49:41.071Z,74.08
2017-05-13T07:50:27.609Z,73.98
2017-05-13T07:51:09.423Z,73.41
2017-05-13T07:51:51.049Z,73.6
2017-05-13T07:52:37.382Z,74.17
2017-05-13T07:53:18.046Z,73.79
2017-05-13T07:53:58.694Z,73.69
2017-05-13T07:54:41.433Z,73.69
2017-05-13T07:55:22.240Z,73.69
2017-05-13T09:58:02.117Z,61.9
2017-05-13T09:58:42.802Z,61.87
2017-05-13T09:59:24.456Z,62.45
2017-05-13T10:00:05.198Z,62.25
2017-05-13T10:00:45.867Z,62.25
2017-05-13T10:01:27.614Z,62.06
2017-05-13T10:02:12.924Z,62.73
2017-05-13T10:03:00.711Z,62.93
2017-05-13T10:03:42.534Z,62.63
2017-05-13T10:04:23.235Z,62.63
2017-05-13T10:05:09.492Z,62.99
2017-05-13T10:05:51.146Z,62.6
2017-05-13T10:06:32.826Z,62.8
2017-05-13T10:07:13.492Z,62.83
2017-05-13T10:07:54.264Z,62.8
2017-05-13T10:08:35.037Z,62.7
2017-05-13T10:09:16.792Z,62.8
2017-05-13T10:09:57.581Z,62.9
2017-05-13T10:10:38.281Z,62.6
2017-05-13T10:11:24.570Z,62.7
2017-05-13T10:12:07.348Z,62.9
2017-05-13T10:12:47.945Z,62.8
2017-05-13T10:13:29.597Z,62.51
2017-05-13T10:14:10.325Z,62.73
2017-05-13T10:14:50.917Z,62.63
2017-05-13T10:15:31.657Z,62.25
2017-05-13T10:16:12.370Z,62.54
2017-05-13T10:16:53.080Z,62.35
2017-05-13T10:17:34.768Z,62.15
2017-05-13T10:18:28.324Z,61.51
2017-05-13T10:19:10.020Z,61.41
2017-05-13T10:19:50.660Z,61.22
2017-05-13T10:20:31.393Z,60.64
2017-05-13T10:21:14.136Z,60.48
2017-05-13T10:21:54.753Z,60
2017-05-13T10:22:35.516Z,59.52
2017-05-13T10:23:16.330Z,59.32
2017-05-13T10:23:56.993Z,59.42
2017-05-13T10:24:37.732Z,59.13
2017-05-13T10:25:18.531Z,59.13
2017-05-13T10:25:59.156Z,59.61
2017-05-13T10:26:40.211Z,59.1
2017-05-13T10:27:21.917Z,59.58
2017-05-13T10:28:02.652Z,59.39
2017-05-13T10:28:44.350Z,59.39
2017-05-13T10:29:25.122Z,59.58
2017-05-13T10:30:06.944Z,59.78
2017-05-13T10:30:47.619Z,59.78
2017-05-13T10:31:34.105Z,59.78
2017-05-13T10:32:16.846Z,60.26
2017-05-13T10:32:59.717Z,60.26
2017-05-13T10:33:40.375Z,60.45
2017-05-13T10:34:26.060Z,60.26
2017-05-13T10:35:08.786Z,60.26
2017-05-13T10:35:50.511Z,60.35
2017-05-13T10:36:31.392Z,60.26
2017-05-13T10:37:12.172Z,60.35
2017-05-13T10:37:54.857Z,60.16
2017-05-13T10:38:35.600Z,60.26
2017-05-13T10:39:16.370Z,60.45
2017-05-13T10:39:59.181Z,60.35
2017-05-13T10:40:39.892Z,60.64
2017-05-13T10:41:22.724Z,60.71
2017-05-13T10:42:03.370Z,60.52
2017-05-13T10:42:44.125Z,61
2017-05-13T10:43:24.837Z,61.29
2017-05-13T10:44:05.652Z,61.1
2017-05-13T10:44:46.447Z,61.48
2017-05-13T10:45:27.220Z,61.19
2017-05-13T10:46:08.030Z,60.9
2017-05-13T10:46:54.537Z,61.48
2017-05-13T10:47:41.001Z,61.29
2017-05-13T10:48:26.529Z,61.58
2017-05-13T10:49:08.280Z,61.65
2017-05-13T10:49:51.042Z,61.93
2017-05-13T10:50:32.844Z,62.22
2017-05-13T10:51:15.615Z,62.32
2017-05-13T10:51:57.302Z,62.51
2017-05-13T10:52:38.082Z,62.8
2017-05-13T10:53:18.881Z,62.6
2017-05-13T10:53:59.657Z,62.8
2017-05-13T10:54:40.373Z,62.22
2017-05-13T10:55:21.120Z,62.41
2017-05-13T10:56:01.814Z,62.22
2017-05-13T10:56:42.593Z,62.22
2017-05-13T10:57:23.420Z,62.22
2017-05-13T10:58:06.170Z,62.12
2017-05-13T10:58:58.554Z,62.12
2017-05-13T10:59:39.325Z,61.83
2017-05-13T11:00:20.207Z,61.74
2017-05-13T11:01:02.040Z,61.83
2017-05-13T11:01:43.779Z,61.55
2017-05-13T11:02:26.494Z,61.16
2017-05-13T11:03:07.284Z,61.07
2017-05-13T11:03:48.005Z,60.58
2017-05-13T11:04:33.564Z,60.58
2017-05-13T11:05:14.328Z,60.32
2017-05-13T11:05:56.054Z,59.94
2017-05-13T11:06:36.692Z,59.65
2017-05-13T11:07:18.458Z,59.17
2017-05-13T11:08:16.061Z,59.07
2017-05-13T11:09:13.694Z,58.97
2017-05-13T11:32:33.403Z,54.79
2017-05-13T11:33:13.967Z,54.69
2017-05-13T11:33:54.730Z,54.5
2017-05-13T11:34:35.478Z,54.62
2017-05-13T11:35:18.138Z,54.24
2017-05-13T11:35:58.870Z,53.85
2017-05-13T11:36:39.493Z,53.75
2017-05-13T11:37:20.294Z,53.27
2017-05-13T11:38:02.023Z,53.2
2017-05-13T11:38:42.840Z,53.39
2017-05-13T11:39:30.305Z,52.62
2017-05-13T11:40:11.016Z,52.72
2017-05-13T11:40:52.696Z,52.36
2017-05-13T11:41:33.445Z,52.45
2017-05-13T11:42:16.167Z,51.87
2017-05-13T11:43:03.811Z,51.49
2017-05-13T11:43:55.454Z,51.78
2017-05-13T11:44:42.045Z,51.68
2017-05-13T11:45:34.345Z,51.78
2017-05-13T11:46:19.803Z,51.68
2017-05-13T11:53:09.485Z,50.71
2017-05-13T11:53:50.070Z,50.81
2017-05-13T11:54:31.784Z,50.26
2017-05-13T11:55:17.154Z,49.87
2017-05-13T11:55:59.922Z,49.77
2017-05-13T11:56:40.609Z,49.77
2017-05-13T11:57:22.575Z,49
2017-05-13T11:58:08.081Z,49.29
2017-05-13T11:59:05.599Z,49.51
2017-05-13T11:59:46.361Z,49.1
2017-05-13T12:00:28.077Z,49.12
2017-05-13T12:01:09.733Z,48.54
2017-05-13T12:01:51.425Z,48.64
2017-05-13T12:02:33.166Z,48.44
2017-05-13T12:03:13.775Z,48.44
2017-05-13T12:03:54.503Z,48.54
2017-05-13T12:06:07.889Z,48.35
2017-05-13T12:06:48.439Z,48.06
2017-05-13T12:07:31.240Z,48.16
2017-05-13T12:08:12.890Z,48.03
2017-05-13T12:09:04.324Z,48.42
2017-05-13T12:09:46.006Z,48.23
2017-05-13T12:10:26.591Z,48.23
2017-05-13T12:11:07.319Z,48.49
2017-05-13T12:11:47.975Z,49.17
2017-05-13T12:12:28.772Z,49.37
2017-05-13T12:13:15.117Z,49.73
2017-05-13T12:13:57.839Z,49.53
2017-05-13T12:22:17.537Z,48.88
2017-05-13T12:22:58.220Z,48.49
2017-05-13T12:23:38.799Z,49.17
2017-05-13T12:24:19.494Z,49.19
2017-05-13T12:25:04.742Z,48.3
2017-05-13T12:25:45.352Z,48.39
2017-05-13T12:28:11.685Z,48.37
2017-05-13T12:28:52.382Z,48.47
2017-05-13T12:29:33.043Z,48.86
2017-05-13T12:30:24.575Z,48.95
2017-05-13T12:31:05.328Z,48.86
2017-05-13T12:31:46.079Z,49.15
2017-05-13T12:32:27.840Z,48.88
2017-05-13T12:33:08.492Z,48.11
2017-05-13T12:33:54.136Z,48.01
2017-05-13T12:34:37.014Z,47.91
2017-05-13T12:35:17.770Z,47.63
2017-05-13T12:35:58.471Z,47.53
2017-05-13T12:36:39.223Z,47.43
2017-05-13T12:37:19.991Z,47.33
2017-05-13T12:38:00.692Z,47.65
2017-05-13T12:38:42.469Z,47.14
2017-05-13T12:39:25.185Z,46.78
2017-05-13T12:40:06.947Z,46.97
2017-05-13T12:40:47.546Z,46.78
2017-05-13T12:41:28.378Z,46.78
2017-05-13T12:42:09.070Z,46.49
2017-05-13T12:42:49.855Z,46.61
2017-05-13T12:43:30.670Z,46.42
2017-05-13T12:44:12.410Z,45.93
2017-05-13T12:44:53.136Z,45.83
2017-05-13T12:45:38.587Z,45.95
2017-05-13T12:46:19.583Z,45.76
2017-05-13T12:47:00.347Z,45.66
2017-05-13T12:47:51.833Z,44.98
2017-05-13T12:48:32.463Z,45.28
2017-05-13T12:49:13.227Z,44.98
2017-05-13T12:49:59.879Z,45.47
2017-05-13T12:50:41.667Z,45.47
2017-05-13T12:51:22.293Z,45.45
2017-05-13T12:52:03.006Z,45.45
2017-05-13T12:52:44.733Z,45.45
2017-05-13T12:53:25.552Z,45.64
2017-05-13T12:54:06.310Z,45.45
2017-05-13T12:54:49.174Z,45.45
2017-05-13T12:55:29.973Z,45.64
2017-05-13T12:56:16.671Z,45.64
2017-05-13T12:56:58.546Z,45.45
2017-05-13T12:57:41.271Z,45.06
2017-05-13T12:58:23.030Z,45.16
2017-05-13T12:59:14.609Z,45.25
2017-05-13T13:00:10.095Z,45.33
2017-05-13T13:00:52.978Z,45.35
2017-05-13T13:19:53.827Z,43.9
2017-05-13T13:20:34.498Z,43.98
2017-05-13T13:21:16.239Z,43.98
2017-05-13T13:21:57.836Z,43.49
2017-05-13T13:22:38.527Z,43.49
2017-05-13T13:23:23.839Z,43.23
2017-05-13T13:24:20.298Z,43.23
2017-05-13T13:25:12.838Z,42.93
2017-05-13T13:25:54.727Z,42.57
2017-05-13T13:26:37.513Z,42.18
2017-05-13T13:27:18.141Z,42.2
2017-05-13T13:27:59.023Z,42.2
2017-05-13T13:28:39.654Z,41.91
2017-05-13T13:29:26.981Z,41.82
2017-05-13T13:30:07.639Z,41.99
2017-05-13T13:30:50.454Z,42.08
2017-05-13T13:31:31.057Z,41.89
2017-05-13T13:32:11.903Z,42.18
2017-05-13T13:32:52.645Z,42.16
2017-05-13T13:33:33.419Z,42.16
2017-05-13T13:34:14.151Z,42.35
2017-05-13T13:34:54.857Z,42.07
2017-05-13T13:35:35.618Z,42.16
2017-05-13T13:36:16.367Z,41.97
2017-05-13T13:36:58.182Z,41.89
2017-05-13T13:37:43.952Z,42.18
2017-05-13T13:38:25.691Z,41.99
2017-05-13T13:39:07.473Z,41.7
2017-05-13T13:39:48.262Z,41.89
2017-05-13T13:40:28.849Z,41.89
2017-05-13T13:41:15.590Z,41.41
2017-05-13T13:42:01.317Z,41.6
2017-05-13T13:42:42.091Z,41.79
2017-05-13T13:43:24.051Z,41.31
2017-05-13T13:44:04.862Z,41.14
2017-05-13T13:44:45.661Z,41.14
2017-05-13T13:45:26.489Z,40.94
2017-05-13T13:46:09.150Z,41.33
2017-05-13T13:46:50.823Z,41.24
2017-05-13T13:47:38.118Z,40.94
2017-05-13T13:48:18.886Z,40.84
2017-05-13T13:48:59.649Z,40.65
2017-05-13T13:49:40.360Z,41.04
2017-05-13T13:50:20.986Z,40.94
2017-05-13T13:51:01.749Z,40.84
2017-05-13T13:51:43.657Z,40.84
2017-05-13T13:52:24.265Z,40.94
2017-05-13T13:53:04.881Z,40.94
2017-05-13T13:53:45.589Z,40.75
2017-05-13T13:54:26.172Z,41.04
2017-05-13T13:55:09.354Z,41.33
2017-05-13T13:55:51.105Z,41.04
2017-05-13T13:56:31.713Z,41.21
2017-05-13T13:57:13.464Z,41.11
2017-05-13T13:57:58.961Z,41.11
2017-05-13T13:58:45.524Z,41.09
2017-05-13T13:59:26.171Z,41.09
2017-05-13T14:00:07.932Z,41.09
2017-05-13T14:00:50.713Z,41.09
2017-05-13T14:01:37.005Z,41.09
2017-05-13T14:02:17.687Z,41.09
2017-05-13T14:03:00.421Z,40.81
2017-05-13T14:03:45.801Z,40.61
2017-05-13T14:04:27.610Z,40.63
2017-05-13T14:05:08.475Z,40.63
2017-05-13T14:05:51.217Z,40.44
2017-05-13T14:06:36.830Z,40.73
2017-05-13T14:07:17.577Z,40.83
2017-05-13T14:08:10.281Z,41.02
2017-05-13T14:09:03.836Z,41.11
2017-05-13T14:09:44.695Z,41.11
2017-05-13T14:10:31.304Z,41.5
2017-05-13T14:11:14.046Z,41.6
2017-05-13T14:11:54.956Z,41.02
2017-05-13T14:12:35.594Z,41.31
2017-05-13T14:13:17.381Z,41.41
2017-05-13T14:13:57.965Z,41.77
2017-05-13T14:14:40.627Z,41.58
2017-05-13T14:15:22.419Z,41.58
2017-05-13T14:16:03.123Z,41.67
2017-05-13T14:16:43.668Z,41.58
2017-05-13T14:17:25.412Z,41.66
2017-05-13T14:22:24.442Z,41.67
2017-05-13T14:23:06.066Z,41.58
2017-05-13T14:23:51.498Z,41.09
2017-05-13T14:24:32.079Z,41
2017-05-13T14:25:17.370Z,41
2017-05-13T14:26:00.143Z,41.29
2017-05-13T14:26:40.717Z,41.19
2017-05-13T14:27:36.462Z,41
2017-05-13T14:28:19.277Z,41.29
2017-05-13T14:29:15.862Z,41
2017-05-13T14:29:57.510Z,41.09
2017-05-13T14:30:49.814Z,41.09
2017-05-13T14:31:31.530Z,41.09
2017-05-13T14:32:14.277Z,41.19
2017-05-13T14:32:57.059Z,41.77
2017-05-13T14:33:37.626Z,41.77
2017-05-13T14:34:18.218Z,41.39
2017-05-13T14:34:59.927Z,42.07
2017-05-13T14:35:46.736Z,41.85
2017-05-13T14:36:26.928Z,41.85
2017-05-13T14:37:07.539Z,42.04
2017-05-13T14:37:48.190Z,42.24
2017-05-13T14:38:28.881Z,41.94
2017-05-13T14:39:09.491Z,42.14
2017-05-13T14:39:50.175Z,42.24
2017-05-13T14:40:30.789Z,42.24
2017-05-13T14:41:11.370Z,42.04
2017-05-13T14:41:51.967Z,41.75
2017-05-13T14:42:32.467Z,41.85
2017-05-13T14:43:13.057Z,41.75
2017-05-13T14:43:53.617Z,41.39
2017-05-13T14:44:34.356Z,41.39
2017-05-13T14:45:14.969Z,41.58
2017-05-13T14:45:55.573Z,41.58
2017-05-13T14:46:36.223Z,41.77
2017-05-13T14:47:16.816Z,41.48
2017-05-13T14:47:57.454Z,41.48
2017-05-13T14:48:38.063Z,41.97
2017-05-13T14:49:18.590Z,41.67
2017-05-13T14:49:59.136Z,41.87
2017-05-13T14:50:39.737Z,42.07
2017-05-13T14:51:20.262Z,41.87
2017-05-13T14:52:00.821Z,42.16
2017-05-13T14:52:41.400Z,42.25
2017-05-13T14:53:21.985Z,41.97
2017-05-13T14:54:02.528Z,42.28
2017-05-13T14:54:43.145Z,41.99
2017-05-13T14:55:23.928Z,41.79
2017-05-13T14:56:04.504Z,41.7
2017-05-13T14:56:47.218Z,41.79
2017-05-13T14:57:28.796Z,41.24
2017-05-13T14:58:09.350Z,41.21
2017-05-13T14:58:55.999Z,41.14
2017-05-13T14:59:43.585Z,41.14
2017-05-13T15:00:24.115Z,41.14
2017-05-13T15:01:10.307Z,41.14
2017-05-13T15:01:51.981Z,41.21
2017-05-13T15:02:32.575Z,41.7
2017-05-13T15:03:13.228Z,41.89
2017-05-13T15:03:53.908Z,41.87
2017-05-13T15:04:34.644Z,42.07
2017-05-13T15:05:16.351Z,42.55
2017-05-13T15:05:57.977Z,42.33
2017-05-13T15:06:38.701Z,42.43
2017-05-13T15:07:20.347Z,42.91
2017-05-13T15:08:01.000Z,42.99
2017-05-13T15:08:41.720Z,43.08
2017-05-13T15:09:28.451Z,43.18
2017-05-13T15:10:10.076Z,42.99
2017-05-13T15:10:51.803Z,43.37
2017-05-13T15:11:32.435Z,43.28
2017-05-13T15:12:13.020Z,43.47
2017-05-13T15:12:53.647Z,43.08
2017-05-13T15:13:36.395Z,43.28
2017-05-13T15:14:17.102Z,43.28
2017-05-13T15:14:57.761Z,43.47
2017-05-13T15:15:38.390Z,43.08
2017-05-13T15:16:19.078Z,42.31
2017-05-13T15:17:00.747Z,42.33
2017-05-13T15:17:43.429Z,41.94
2017-05-13T15:18:24.065Z,41.75
2017-05-13T15:19:06.893Z,41.56
2017-05-13T15:19:47.587Z,41.67
2017-05-13T15:20:29.188Z,41.29
2017-05-13T15:21:10.859Z,41.19
2017-05-13T15:21:51.632Z,41.21
2017-05-13T15:22:37.240Z,40.92
2017-05-13T15:23:17.996Z,41.11
2017-05-13T15:23:58.567Z,41.31
2017-05-13T15:24:39.250Z,41.21
2017-05-13T15:25:20.938Z,41.5
2017-05-13T15:26:01.672Z,41.58
2017-05-13T15:26:42.216Z,41.6
2017-05-13T15:27:22.882Z,41.87
2017-05-13T15:28:03.725Z,41.67
2017-05-13T15:28:44.513Z,41.67
2017-05-13T15:29:29.875Z,41.77
2017-05-13T15:30:11.585Z,41.87
2017-05-13T15:30:52.146Z,41.87
2017-05-13T15:31:32.854Z,41.58
2017-05-13T15:32:14.564Z,41.67
2017-05-13T15:32:55.213Z,42.07
2017-05-13T15:33:35.940Z,42.16
2017-05-13T15:34:16.604Z,42.25
2017-05-13T15:34:57.228Z,42.07
2017-05-13T15:35:37.896Z,42.25
2017-05-13T15:36:18.560Z,41.87
2017-05-13T15:37:01.239Z,42.25
2017-05-13T15:37:41.760Z,41.79
2017-05-13T15:38:23.364Z,41.6
2017-05-13T15:39:04.009Z,41.79
2017-05-13T15:39:44.497Z,41.77
2017-05-13T15:40:25.140Z,41.6
2017-05-13T15:41:05.654Z,42.08
2017-05-13T15:41:46.234Z,41.97
2017-05-13T15:42:26.969Z,41.97
2017-05-13T15:43:07.747Z,41.67
2017-05-13T15:43:48.290Z,41.87